Time;durP1;ratioP1;P1;durP2;ratioP2;P2;SDS_P1;SDS_P2;PMS_P1;PMS_P2;Temp;Humidity;BMP_temperature;BMP_pressure;BME280_temperature;BME280_humidity;BME280_pressure;Samples;Min_cycle;Max_cycle;Signal;HPM_P1;HPM_P2
2022/03/17 00:01:34;;;;;;;47.35;35.08;;;4.40;99.90;;;;;;5051219;28;20468;-53
2022/03/17 00:04:00;;;;;;;51.92;36.42;;;4.50;99.90;;;;;;5052739;28;20029;-56
2022/03/17 00:06:26;;;;;;;50.92;35.97;;;4.40;99.90;;;;;;5052834;28;20403;-50
2022/03/17 00:08:51;;;;;;;56.88;35.88;;;4.40;99.90;;;;;;5053039;28;20511;-55
2022/03/17 00:11:17;;;;;;;51.67;35.97;;;4.40;99.90;;;;;;5053112;28;20677;-54
2022/03/17 00:13:42;;;;;;;46.15;34.78;;;4.40;99.90;;;;;;5052511;28;20057;-53
2022/03/17 00:16:10;;;;;;;53.67;35.90;;;4.40;99.90;;;;;;5052759;28;20111;-55
2022/03/17 00:18:36;;;;;;;57.60;37.78;;;4.30;99.90;;;;;;5052767;28;20060;-55
2022/03/17 00:21:02;;;;;;;49.67;35.78;;;4.30;99.90;;;;;;5052751;28;20060;-57
2022/03/17 00:23:28;;;;;;;50.30;36.30;;;4.30;99.90;;;;;;5052740;28;20017;-53
2022/03/17 00:25:54;;;;;;;56.33;38.70;;;4.30;99.90;;;;;;5052151;28;20096;-52
2022/03/17 00:28:20;;;;;;;52.72;37.17;;;4.30;99.90;;;;;;5052741;28;20026;-54
2022/03/17 00:30:46;;;;;;;57.20;40.40;;;4.20;99.90;;;;;;5051107;28;20025;-52
2022/03/17 00:33:11;;;;;;;58.85;40.28;;;4.20;99.90;;;;;;5052625;28;20480;-53
2022/03/17 00:35:42;;;;;;;55.08;38.35;;;4.10;99.90;;;;;;5052643;28;20033;-51
2022/03/17 00:38:16;;;;;;;56.78;41.00;;;4.10;99.90;;;;;;5052417;28;20590;-52
2022/03/17 00:40:44;;;;;;;60.70;40.78;;;4.10;99.90;;;;;;5052451;28;20029;-57
2022/03/17 00:43:12;;;;;;;54.65;38.30;;;4.10;99.90;;;;;;5051958;28;20053;-54
2022/03/17 00:45:39;;;;;;;63.20;40.08;;;4.10;99.90;;;;;;5051932;28;20021;-53
2022/03/17 00:48:05;;;;;;;56.67;39.90;;;4.10;99.90;;;;;;5052089;28;20578;-55
2022/03/17 00:50:32;;;;;;;55.47;40.22;;;4.10;99.90;;;;;;5052090;28;20396;-53
2022/03/17 00:52:59;;;;;;;63.50;42.55;;;4.00;99.90;;;;;;5051978;28;20627;-53
2022/03/17 00:55:25;;;;;;;64.97;41.30;;;4.00;99.90;;;;;;5051722;28;20073;-53
2022/03/17 00:57:51;;;;;;;66.10;43.63;;;4.00;99.90;;;;;;5051245;28;20437;-52
2022/03/17 01:00:18;;;;;;;58.97;42.40;;;4.00;99.90;;;;;;5052306;28;20025;-51
2022/03/17 01:02:46;;;;;;;57.42;39.35;;;4.00;99.90;;;;;;5051872;28;20021;-51
2022/03/17 01:05:13;;;;;;;62.50;42.45;;;4.00;99.90;;;;;;5052304;28;20364;-52
2022/03/17 01:07:39;;;;;;;59.22;40.80;;;4.00;99.90;;;;;;5051846;28;20050;-56
2022/03/17 01:10:06;;;;;;;60.47;41.90;;;4.00;99.90;;;;;;5050624;28;20116;-51
2022/03/17 01:12:32;;;;;;;65.75;43.15;;;3.90;99.90;;;;;;5051585;28;20671;-50
2022/03/17 01:14:59;;;;;;;62.38;42.80;;;3.90;99.90;;;;;;5051805;28;20120;-52
2022/03/17 01:17:25;;;;;;;62.28;43.08;;;3.90;99.90;;;;;;5051794;28;20156;-53
2022/03/17 01:19:51;;;;;;;66.18;43.60;;;3.90;99.90;;;;;;5051668;28;20539;-50
2022/03/17 01:22:16;;;;;;;64.95;43.78;;;3.90;99.90;;;;;;5051606;28;20031;-55
2022/03/17 01:24:45;;;;;;;61.03;40.35;;;3.90;99.90;;;;;;5050260;28;20096;-51
2022/03/17 01:27:11;;;;;;;66.00;42.47;;;3.80;99.90;;;;;;5049379;28;20025;-54
2022/03/17 01:29:40;;;;;;;64.63;42.83;;;3.80;99.90;;;;;;5049837;28;20017;-53
2022/03/17 01:32:07;;;;;;;68.25;42.40;;;3.80;99.90;;;;;;5050292;28;20025;-54
2022/03/17 01:34:33;;;;;;;66.22;44.53;;;3.80;99.90;;;;;;5049874;28;20059;-52
2022/03/17 01:36:59;;;;;;;58.92;40.80;;;3.70;99.90;;;;;;5049309;28;20476;-54
2022/03/17 01:39:24;;;;;;;71.35;46.05;;;3.70;99.90;;;;;;5050239;28;20033;-53
2022/03/17 01:41:50;;;;;;;62.20;42.03;;;3.70;99.90;;;;;;5049264;28;20106;-56
2022/03/17 01:44:16;;;;;;;63.03;42.92;;;3.70;99.90;;;;;;5049659;28;20104;-52
2022/03/17 01:49:25;;;;;;;66.85;45.95;;;3.70;99.90;;;;;;5049055;28;20537;-57
2022/03/17 01:51:51;;;;;;;75.90;46.67;;;3.70;99.90;;;;;;5049867;28;20136;-49
2022/03/17 01:54:19;;;;;;;67.25;44.80;;;3.70;99.90;;;;;;5048659;28;20016;-57
2022/03/17 01:56:46;;;;;;;67.63;45.55;;;3.70;99.90;;;;;;5049128;28;20108;-51
2022/03/17 01:59:12;;;;;;;71.80;46.55;;;3.60;99.90;;;;;;5049739;28;20395;-54
2022/03/17 02:01:38;;;;;;;74.68;47.65;;;3.60;99.90;;;;;;5049898;28;20119;-52
2022/03/17 02:04:05;;;;;;;67.63;46.83;;;3.60;99.90;;;;;;5048928;28;20310;-55
2022/03/17 02:06:31;;;;;;;80.82;48.22;;;3.60;99.90;;;;;;5049796;28;20621;-56
2022/03/17 02:08:57;;;;;;;70.82;45.85;;;3.60;99.90;;;;;;5053470;28;20043;-55
2022/03/17 02:14:07;;;;;;;78.18;48.00;;;3.50;99.90;;;;;;5054051;28;20052;-54
2022/03/17 02:16:33;;;;;;;72.05;48.72;;;3.50;99.90;;;;;;5053907;28;20112;-55
2022/03/17 02:18:59;;;;;;;79.18;49.83;;;3.50;99.90;;;;;;5054708;28;20087;-55
2022/03/17 02:21:25;;;;;;;72.53;49.20;;;3.50;99.90;;;;;;5055070;28;20536;-53
2022/03/17 02:26:38;;;;;;;70.90;48.53;;;3.50;99.90;;;;;;5054060;28;20079;-55
2022/03/17 02:29:04;;;;;;;76.78;50.85;;;3.50;99.90;;;;;;5054880;28;20029;-55
2022/03/17 02:31:32;;;;;;;79.72;48.88;;;3.50;99.90;;;;;;5053641;28;20033;-59
2022/03/17 02:33:57;;;;;;;78.97;52.75;;;3.50;99.90;;;;;;5054364;28;20471;-54
2022/03/17 02:36:24;;;;;;;78.10;48.55;;;3.50;99.90;;;;;;5054726;28;20029;-56
2022/03/17 02:38:50;;;;;;;75.63;51.00;;;3.50;99.90;;;;;;5052814;28;20392;-51
2022/03/17 02:41:22;;;;;;;77.95;51.92;;;3.50;99.90;;;;;;5053672;28;20134;-54
2022/03/17 02:43:51;;;;;;;78.07;49.08;;;3.50;99.90;;;;;;5054009;28;20025;-53
2022/03/17 02:46:17;;;;;;;78.72;51.10;;;3.50;99.90;;;;;;5054628;28;20022;-54
2022/03/17 02:48:43;;;;;;;74.07;49.72;;;3.50;99.90;;;;;;5054408;28;20029;-57
2022/03/17 02:51:10;;;;;;;75.70;51.28;;;3.60;99.90;;;;;;5053668;28;20021;-52
2022/03/17 02:53:35;;;;;;;77.25;51.92;;;3.60;99.90;;;;;;5054113;28;20021;-53
2022/03/17 02:56:01;;;;;;;76.00;50.17;;;3.60;99.90;;;;;;5054041;28;20368;-64
2022/03/17 02:58:27;;;;;;;81.15;50.63;;;3.60;99.90;;;;;;5054043;28;20021;-54
2022/03/17 03:00:52;;;;;;;86.00;53.22;;;3.60;99.90;;;;;;5054156;28;20033;-56
2022/03/17 03:03:18;;;;;;;86.22;55.92;;;3.50;99.90;;;;;;5054176;28;20044;-56
2022/03/17 03:05:44;;;;;;;80.32;52.97;;;3.60;99.90;;;;;;5052859;28;20025;-56
2022/03/17 03:08:10;;;;;;;86.68;55.60;;;3.50;99.90;;;;;;5054438;28;20017;-53
2022/03/17 03:10:36;;;;;;;78.43;52.55;;;3.50;99.90;;;;;;5054097;28;20494;-58
2022/03/17 03:13:02;;;;;;;80.18;52.00;;;3.50;99.90;;;;;;5053917;28;20055;-55
2022/03/17 03:15:29;;;;;;;82.45;53.05;;;3.60;99.90;;;;;;5054308;28;20507;-55
2022/03/17 03:17:55;;;;;;;81.25;51.13;;;3.50;99.90;;;;;;5054124;28;20037;-57
2022/03/17 03:20:22;;;;;;;76.15;53.38;;;3.60;99.90;;;;;;5053792;28;20021;-55
2022/03/17 03:22:47;;;;;;;80.30;52.03;;;3.50;99.90;;;;;;5054920;28;20024;-57
2022/03/17 03:25:13;;;;;;;78.38;51.83;;;3.60;99.90;;;;;;5072733;28;20033;-55
2022/03/17 03:27:44;;;;;;;85.38;56.45;;;3.50;99.90;;;;;;5072749;28;20021;-55
2022/03/17 03:30:11;;;;;;;79.72;53.58;;;3.60;99.90;;;;;;5072584;28;20028;-53
2022/03/17 03:32:42;;;;;;;85.45;53.88;;;3.50;99.90;;;;;;5071238;28;20062;-57
2022/03/17 03:37:54;;;;;;;95.05;55.75;;;3.50;99.90;;;;;;5072551;28;20039;-57
2022/03/17 03:40:19;;;;;;;82.72;53.05;;;3.50;99.90;;;;;;5072477;28;20048;-57
2022/03/17 03:42:45;;;;;;;82.32;55.22;;;3.50;99.90;;;;;;5072504;28;20048;-57
2022/03/17 03:45:11;;;;;;;83.13;54.40;;;3.50;99.90;;;;;;5072479;28;20496;-55
2022/03/17 03:47:36;;;;;;;91.15;57.78;;;3.50;99.90;;;;;;5072483;28;20701;-56
2022/03/17 03:50:03;;;;;;;88.45;55.67;;;3.50;99.90;;;;;;5073417;28;20044;-57
2022/03/17 03:52:29;;;;;;;95.18;56.70;;;3.50;99.90;;;;;;5073401;28;20027;-52
2022/03/17 03:54:55;;;;;;;90.22;57.60;;;3.60;99.90;;;;;;5071754;28;20402;-53
2022/03/17 03:57:20;;;;;;;85.10;54.88;;;3.50;99.90;;;;;;5072068;28;20032;-57
2022/03/17 03:59:47;;;;;;;87.18;55.40;;;3.60;99.90;;;;;;5070799;28;20069;-57
2022/03/17 04:02:14;;;;;;;90.82;55.75;;;3.60;99.90;;;;;;5070668;28;20036;-53
2022/03/17 04:04:40;;;;;;;88.43;56.90;;;3.60;99.90;;;;;;5071687;28;20063;-57
2022/03/17 04:07:09;;;;;;;93.05;56.42;;;3.60;99.90;;;;;;5070411;28;20459;-53
2022/03/17 04:09:39;;;;;;;91.93;57.20;;;3.50;99.90;;;;;;5071774;28;20071;-54
2022/03/17 04:12:07;;;;;;;92.63;57.97;;;3.50;99.90;;;;;;5071844;28;20021;-52
2022/03/17 04:14:33;;;;;;;93.05;58.15;;;3.40;99.90;;;;;;5071192;28;20052;-55
2022/03/17 04:16:59;;;;;;;92.50;56.60;;;3.50;99.90;;;;;;5072653;28;20024;-55
2022/03/17 04:19:25;;;;;;;84.93;56.03;;;3.50;99.90;;;;;;5073015;28;20028;-56
2022/03/17 04:21:51;;;;;;;92.03;55.72;;;3.50;99.90;;;;;;5072521;28;20082;-55
2022/03/17 04:24:18;;;;;;;89.68;56.33;;;3.40;99.90;;;;;;5072556;28;20021;-55
2022/03/17 04:26:44;;;;;;;87.38;58.25;;;3.40;99.90;;;;;;5072563;28;20606;-57
2022/03/17 04:29:11;;;;;;;104.38;59.92;;;3.40;99.90;;;;;;5072782;28;20009;-55
2022/03/17 04:31:38;;;;;;;90.30;59.20;;;3.40;99.90;;;;;;5072062;28;20046;-53
2022/03/17 04:34:04;;;;;;;90.45;55.75;;;3.30;99.90;;;;;;5072566;28;20020;-55
2022/03/17 04:36:33;;;;;;;88.45;56.70;;;3.30;99.90;;;;;;5072235;28;20344;-58
2022/03/17 04:39:00;;;;;;;101.55;64.47;;;3.40;99.90;;;;;;5072325;28;20024;-57
2022/03/17 04:41:26;;;;;;;95.88;58.33;;;3.40;99.90;;;;;;5071144;28;20436;-56
2022/03/17 04:43:51;;;;;;;91.82;57.08;;;3.40;99.90;;;;;;5072244;28;20107;-57
2022/03/17 04:46:17;;;;;;;92.10;59.10;;;3.30;99.90;;;;;;5072398;28;20027;-57
2022/03/17 04:48:43;;;;;;;95.15;56.20;;;3.30;99.90;;;;;;5072163;28;20078;-54
2022/03/17 04:51:09;;;;;;;101.07;61.30;;;3.30;99.90;;;;;;5072213;28;20077;-54
2022/03/17 04:53:35;;;;;;;92.05;59.08;;;3.30;99.90;;;;;;5072012;28;20023;-55
2022/03/17 04:56:04;;;;;;;100.43;62.30;;;3.30;99.90;;;;;;5072334;28;20461;-57
2022/03/17 04:58:32;;;;;;;105.07;60.05;;;3.20;99.90;;;;;;5071214;28;20410;-55
2022/03/17 05:01:03;;;;;;;90.93;58.22;;;3.20;99.90;;;;;;5070870;28;20028;-52
2022/03/17 05:03:28;;;;;;;97.35;58.75;;;3.20;99.90;;;;;;5070799;28;20024;-57
2022/03/17 05:05:55;;;;;;;91.90;58.10;;;3.30;99.90;;;;;;5070561;28;20524;-56
2022/03/17 05:08:21;;;;;;;102.10;60.42;;;3.30;99.90;;;;;;5071185;28;20502;-53
2022/03/17 05:10:47;;;;;;;94.75;57.53;;;3.30;99.90;;;;;;5070773;28;20025;-49
2022/03/17 05:13:15;;;;;;;101.22;61.03;;;3.20;99.90;;;;;;5070703;28;20045;-53
2022/03/17 05:15:41;;;;;;;104.63;63.35;;;3.20;99.90;;;;;;5069640;28;20562;-49
2022/03/17 05:18:08;;;;;;;104.85;62.17;;;3.30;99.90;;;;;;5070984;28;20040;-53
2022/03/17 05:20:38;;;;;;;102.47;62.75;;;3.30;99.90;;;;;;5070317;28;20025;-54
2022/03/17 05:23:05;;;;;;;108.00;61.17;;;3.30;99.90;;;;;;5071618;28;20031;-54
2022/03/17 05:25:31;;;;;;;109.05;63.08;;;3.30;99.90;;;;;;5071782;28;20397;-53
2022/03/17 05:27:57;;;;;;;104.25;62.92;;;3.30;99.90;;;;;;5071638;28;20107;-55
2022/03/17 05:30:23;;;;;;;96.63;58.70;;;3.30;99.90;;;;;;5071674;28;20360;-52
2022/03/17 05:32:48;;;;;;;111.45;66.10;;;3.30;99.90;;;;;;5071574;28;20028;-56
2022/03/17 05:35:15;;;;;;;101.28;61.00;;;3.30;99.90;;;;;;5071407;28;20016;-52
2022/03/17 05:37:41;;;;;;;97.90;59.00;;;3.30;99.90;;;;;;5071561;28;20028;-57
2022/03/17 05:40:13;;;;;;;102.60;61.78;;;3.30;99.90;;;;;;5071531;28;20028;-55
2022/03/17 05:42:43;;;;;;;104.72;62.08;;;3.30;99.90;;;;;;5070561;28;20017;-54
2022/03/17 05:45:09;;;;;;;104.35;61.67;;;3.30;99.90;;;;;;5071312;28;20490;-55
2022/03/17 05:47:40;;;;;;;93.93;58.20;;;3.40;99.90;;;;;;5070053;28;20024;-53
2022/03/17 05:50:09;;;;;;;96.15;59.97;;;3.30;99.90;;;;;;5071468;28;20028;-52
2022/03/17 05:52:36;;;;;;;99.60;59.63;;;3.40;99.90;;;;;;5071294;28;20028;-55
2022/03/17 05:55:02;;;;;;;94.30;58.70;;;3.40;99.90;;;;;;5071466;28;20050;-53
2022/03/17 05:57:28;;;;;;;280.77;124.65;;;3.50;99.90;;;;;;5071297;28;20472;-56
2022/03/17 05:59:54;;;;;;;121.00;66.55;;;3.50;99.90;;;;;;5069840;28;20090;-55
2022/03/17 06:02:20;;;;;;;114.70;71.60;;;3.50;99.90;;;;;;5070694;28;20029;-56
2022/03/17 06:04:46;;;;;;;114.95;71.05;;;3.50;99.90;;;;;;5071273;28;20025;-49
2022/03/17 06:07:11;;;;;;;113.55;70.60;;;3.50;99.90;;;;;;5071258;28;20592;-54
2022/03/17 06:09:38;;;;;;;126.75;77.28;;;3.60;99.90;;;;;;5071162;28;20028;-52
2022/03/17 06:12:05;;;;;;;100.57;64.28;;;3.60;99.90;;;;;;5070898;28;20032;-53
2022/03/17 06:14:32;;;;;;;107.35;70.28;;;3.70;99.90;;;;;;5071027;28;20536;-58
2022/03/17 06:16:58;;;;;;;101.05;59.63;;;3.70;99.90;;;;;;5071315;28;20170;-50
2022/03/17 06:19:24;;;;;;;101.88;64.15;;;3.70;99.90;;;;;;5070996;28;20147;-50
2022/03/17 06:21:50;;;;;;;96.75;61.45;;;3.80;99.90;;;;;;5071046;28;20115;-51
2022/03/17 06:24:15;;;;;;;102.80;63.92;;;3.90;99.90;;;;;;5070944;28;20027;-53
2022/03/17 06:26:41;;;;;;;99.45;61.95;;;3.90;99.90;;;;;;5071162;28;20036;-54
2022/03/17 06:29:07;;;;;;;89.43;57.30;;;4.00;99.90;;;;;;5070902;28;20027;-56
2022/03/17 06:31:32;;;;;;;87.70;56.72;;;4.10;99.90;;;;;;5071063;28;20036;-52
2022/03/17 06:33:58;;;;;;;119.35;58.58;;;4.00;99.90;;;;;;5070905;28;20033;-51
2022/03/17 06:36:26;;;;;;;166.48;113.72;;;4.00;99.90;;;;;;5070978;28;20029;-53
2022/03/17 06:38:51;;;;;;;93.47;58.85;;;4.00;99.90;;;;;;5070837;28;20077;-52
2022/03/17 06:41:17;;;;;;;89.60;57.88;;;4.10;99.90;;;;;;5070844;28;20032;-52
2022/03/17 06:43:42;;;;;;;97.28;58.22;;;4.10;99.90;;;;;;5070890;28;20063;-54
2022/03/17 06:46:08;;;;;;;88.28;57.60;;;4.20;99.90;;;;;;5070587;28;20029;-62
2022/03/17 06:48:34;;;;;;;95.00;58.45;;;4.20;99.90;;;;;;5070492;28;20487;-52
2022/03/17 06:51:00;;;;;;;89.15;56.35;;;4.30;99.90;;;;;;5070563;28;20616;-55
2022/03/17 06:53:26;;;;;;;97.43;61.30;;;4.40;99.90;;;;;;5071527;28;20024;-54
2022/03/17 06:55:52;;;;;;;87.55;56.50;;;4.40;99.90;;;;;;5074093;28;20046;-57
2022/03/17 06:58:17;;;;;;;92.38;54.05;;;4.40;99.90;;;;;;5074247;28;20516;-54
2022/03/17 07:00:43;;;;;;;93.75;62.55;;;4.50;99.90;;;;;;5073739;28;20511;-55
2022/03/17 07:03:09;;;;;;;86.60;55.45;;;4.60;99.90;;;;;;5073413;28;20407;-54
2022/03/17 07:05:34;;;;;;;79.53;53.50;;;4.70;99.90;;;;;;5073822;28;20036;-57
2022/03/17 07:08:00;;;;;;;91.47;56.35;;;4.80;99.90;;;;;;5074146;28;20639;-57
2022/03/17 07:10:29;;;;;;;87.70;54.80;;;4.80;99.90;;;;;;5072844;28;20025;-53
2022/03/17 07:12:55;;;;;;;89.45;54.58;;;4.80;99.90;;;;;;5073954;28;20040;-56
2022/03/17 07:15:21;;;;;;;88.40;54.63;;;5.00;99.90;;;;;;5074161;28;20024;-56
2022/03/17 07:17:47;;;;;;;78.60;50.47;;;5.00;99.90;;;;;;5072615;28;20123;-55
2022/03/17 07:20:19;;;;;;;79.13;52.85;;;5.00;99.90;;;;;;5074171;28;20025;-57
2022/03/17 07:22:50;;;;;;;86.85;54.38;;;5.10;99.90;;;;;;5071914;28;20133;-53
2022/03/17 07:25:19;;;;;;;78.95;52.55;;;5.10;99.90;;;;;;5073742;28;20075;-56
2022/03/17 07:27:48;;;;;;;85.60;53.63;;;5.30;99.90;;;;;;5073694;28;20051;-55
2022/03/17 07:30:18;;;;;;;78.88;51.90;;;5.30;99.90;;;;;;5073927;28;20024;-55
2022/03/17 07:32:49;;;;;;;82.78;52.35;;;5.40;99.90;;;;;;5073513;28;20143;-57
2022/03/17 07:35:15;;;;;;;77.68;51.35;;;5.40;99.90;;;;;;5073803;28;20032;-54
2022/03/17 07:37:42;;;;;;;86.93;48.50;;;5.50;99.90;;;;;;5073498;28;20035;-55
2022/03/17 07:40:08;;;;;;;76.85;51.17;;;5.50;99.90;;;;;;5073675;28;20024;-52
2022/03/17 07:42:34;;;;;;;81.40;51.38;;;5.60;99.90;;;;;;5073624;28;20021;-55
2022/03/17 07:45:00;;;;;;;74.13;50.22;;;5.70;99.90;;;;;;5072245;28;20478;-50
2022/03/17 07:47:25;;;;;;;74.25;49.72;;;5.80;99.90;;;;;;5073606;28;20021;-51
2022/03/17 07:49:52;;;;;;;71.22;48.50;;;6.00;99.90;;;;;;5071919;28;20020;-56
2022/03/17 07:52:18;;;;;;;79.78;49.58;;;5.90;99.90;;;;;;5073487;28;20155;-55
2022/03/17 07:54:46;;;;;;;78.10;50.20;;;6.00;99.90;;;;;;5073424;28;20095;-51
2022/03/17 07:57:12;;;;;;;74.07;47.60;;;6.10;99.90;;;;;;5073407;28;20070;-54
2022/03/17 07:59:38;;;;;;;73.05;48.08;;;6.30;99.90;;;;;;5073201;28;20159;-53
2022/03/17 08:02:05;;;;;;;68.40;46.00;;;6.30;99.90;;;;;;5073303;28;20032;-53
2022/03/17 08:04:31;;;;;;;74.95;47.42;;;6.50;99.90;;;;;;5072664;28;20063;-54
2022/03/17 08:07:00;;;;;;;71.78;46.65;;;6.60;99.90;;;;;;5072540;28;20376;-50
2022/03/17 08:09:27;;;;;;;65.18;46.72;;;6.60;99.90;;;;;;5072125;28;20052;-55
2022/03/17 08:11:52;;;;;;;68.40;47.47;;;6.60;99.90;;;;;;5072916;28;20116;-51
2022/03/17 08:14:18;;;;;;;65.05;45.95;;;6.50;99.90;;;;;;5072948;28;20139;-52
2022/03/17 08:16:44;;;;;;;67.63;44.63;;;6.70;99.90;;;;;;5071531;28;20482;-58
2022/03/17 08:19:13;;;;;;;77.45;47.60;;;6.80;99.90;;;;;;5072956;28;20375;-57
2022/03/17 08:21:39;;;;;;;72.07;45.60;;;6.90;99.90;;;;;;5072601;28;20036;-57
2022/03/17 08:24:06;;;;;;;65.28;44.60;;;7.10;99.90;;;;;;5072779;28;20426;-55
2022/03/17 08:26:32;;;;;;;63.97;43.42;;;7.30;99.90;;;;;;5072565;28;20471;-54
2022/03/17 08:28:58;;;;;;;71.63;44.88;;;7.50;99.90;;;;;;5072560;28;20103;-54
2022/03/17 08:31:24;;;;;;;80.82;47.28;;;7.60;99.90;;;;;;5072668;28;20048;-57
2022/03/17 08:33:50;;;;;;;73.95;44.25;;;7.70;99.90;;;;;;5072286;28;20106;-54
2022/03/17 08:36:16;;;;;;;68.32;46.33;;;7.80;99.90;;;;;;5072697;28;20377;-54
2022/03/17 08:38:41;;;;;;;66.82;42.28;;;7.90;99.90;;;;;;5072314;28;20056;-56
2022/03/17 08:41:07;;;;;;;65.97;42.05;;;8.00;99.90;;;;;;5071115;28;20032;-53
2022/03/17 08:43:33;;;;;;;66.10;43.22;;;7.90;99.90;;;;;;5072183;28;20029;-58
2022/03/17 08:51:28;;;;;;;63.40;41.25;;;8.10;99.90;;;;;;5071671;28;20031;-55
2022/03/17 08:53:55;;;;;;;63.38;41.53;;;8.30;99.90;;;;;;5070141;28;20050;-57
2022/03/17 08:56:21;;;;;;;66.13;40.67;;;8.40;99.90;;;;;;5072155;28;20035;-51
2022/03/17 08:58:47;;;;;;;60.53;40.97;;;8.30;99.90;;;;;;5071944;28;20574;-55
2022/03/17 09:01:12;;;;;;;62.25;40.88;;;8.60;99.90;;;;;;5071881;28;20463;-56
2022/03/17 09:03:38;;;;;;;60.85;41.60;;;8.60;99.90;;;;;;5072179;28;20039;-55
2022/03/17 09:06:03;;;;;;;63.03;41.63;;;8.80;99.90;;;;;;5071867;28;20024;-57
2022/03/17 09:08:29;;;;;;;62.83;41.83;;;9.00;99.90;;;;;;5071941;28;20074;-56
2022/03/17 09:10:56;;;;;;;62.53;40.85;;;9.10;99.90;;;;;;5071908;28;20107;-58
2022/03/17 09:13:25;;;;;;;62.42;39.70;;;9.20;99.90;;;;;;5071497;28;20122;-58
2022/03/17 09:15:52;;;;;;;59.42;41.92;;;9.30;99.90;;;;;;5069907;28;20122;-58
2022/03/17 09:18:20;;;;;;;74.45;43.10;;;9.40;99.90;;;;;;5071759;28;20043;-58
2022/03/17 09:20:46;;;;;;;63.95;40.58;;;9.70;99.90;;;;;;5071537;28;20040;-59
2022/03/17 09:23:11;;;;;;;58.22;39.40;;;9.90;99.90;;;;;;5071554;28;20067;-56
2022/03/17 09:25:37;;;;;;;62.00;41.42;;;9.80;99.90;;;;;;5071334;28;20021;-58
2022/03/17 09:28:04;;;;;;;60.03;38.63;;;9.80;99.90;;;;;;5071404;28;20024;-58
2022/03/17 09:30:30;;;;;;;55.50;37.90;;;9.70;99.90;;;;;;5071574;28;20020;-57
2022/03/17 09:32:58;;;;;;;65.20;37.08;;;9.90;99.90;;;;;;5071460;28;20028;-55
2022/03/17 09:35:25;;;;;;;59.22;40.20;;;10.00;99.90;;;;;;5071635;28;20080;-56
2022/03/17 09:37:51;;;;;;;61.63;41.72;;;9.90;99.90;;;;;;5071543;28;20028;-56
2022/03/17 09:40:17;;;;;;;69.35;40.17;;;10.00;99.90;;;;;;5071552;28;20379;-57
2022/03/17 09:42:42;;;;;;;52.88;36.92;;;10.40;99.90;;;;;;5071263;28;20029;-58
2022/03/17 09:45:10;;;;;;;63.85;37.83;;;10.50;99.90;;;;;;5070245;28;20035;-57
2022/03/17 09:47:39;;;;;;;110.07;71.18;;;10.50;99.90;;;;;;5071021;28;20035;-58
2022/03/17 09:50:08;;;;;;;68.57;40.42;;;10.70;99.90;;;;;;5071368;28;20025;-59
2022/03/17 09:52:39;;;;;;;54.45;34.95;;;11.00;99.90;;;;;;5071180;28;20020;-59
2022/03/17 09:55:07;;;;;;;58.08;37.08;;;11.10;99.90;;;;;;5071274;28;20031;-59
2022/03/17 09:57:33;;;;;;;52.30;36.45;;;11.10;99.90;;;;;;5071261;28;20621;-57
2022/03/17 09:59:59;;;;;;;50.25;36.08;;;11.20;99.90;;;;;;5071328;28;20032;-58
2022/03/17 10:02:25;;;;;;;55.70;38.03;;;11.20;99.70;;;;;;5071402;28;20040;-58
2022/03/17 10:04:52;;;;;;;51.67;36.42;;;11.20;99.90;;;;;;5071424;28;20452;-55
2022/03/17 10:07:21;;;;;;;53.92;35.88;;;11.30;99.20;;;;;;5069937;28;20502;-58
2022/03/17 10:09:49;;;;;;;55.97;34.75;;;11.40;99.60;;;;;;5070657;28;20159;-59
2022/03/17 10:12:17;;;;;;;68.22;40.10;;;11.40;99.50;;;;;;5070786;28;20032;-58
2022/03/17 10:14:48;;;;;;;59.30;39.78;;;11.40;99.70;;;;;;5071021;28;20048;-58
2022/03/17 10:17:38;;;;;;;46.72;33.50;;;11.50;99.30;;;;;;5071342;28;20380;-57
2022/03/17 10:20:15;;;;;;;45.13;33.03;;;11.90;99.10;;;;;;5071197;28;20021;-58
2022/03/17 10:22:52;;;;;;;55.80;35.53;;;12.30;97.60;;;;;;5070930;28;20021;-58
2022/03/17 10:25:20;;;;;;;49.03;34.47;;;12.50;97.40;;;;;;5071082;28;20051;-58
2022/03/17 10:27:46;;;;;;;45.70;32.50;;;12.40;96.40;;;;;;5054762;28;20345;-60
2022/03/17 10:30:13;;;;;;;49.95;34.05;;;12.80;96.00;;;;;;5043567;28;20036;-59
2022/03/17 10:32:39;;;;;;;50.78;32.10;;;12.70;96.00;;;;;;5043958;28;20163;-58
2022/03/17 10:35:08;;;;;;;50.70;32.88;;;12.60;95.40;;;;;;5044910;28;20124;-56
2022/03/17 10:37:36;;;;;;;45.58;32.83;;;12.70;95.20;;;;;;5050223;28;20025;-59
2022/03/17 10:40:09;;;;;;;44.50;30.63;;;12.80;95.70;;;;;;5062873;28;20052;-58
2022/03/17 10:42:35;;;;;;;52.05;31.50;;;12.70;94.00;;;;;;5063748;28;20032;-58
2022/03/17 10:45:05;;;;;;;48.78;30.90;;;12.70;94.20;;;;;;5063973;28;20101;-57
2022/03/17 10:47:42;;;;;;;43.15;29.00;;;13.10;94.10;;;;;;5047393;28;20065;-57
2022/03/17 10:50:11;;;;;;;61.65;30.70;;;13.20;92.80;;;;;;5043928;28;20036;-59
2022/03/17 10:52:51;;;;;;;46.55;28.63;;;13.40;91.60;;;;;;5044113;28;20035;-56
2022/03/17 10:55:25;;;;;;;38.00;28.70;;;13.40;92.10;;;;;;5044243;28;20044;-57
2022/03/17 10:57:54;;;;;;;45.00;32.15;;;13.50;92.50;;;;;;5042854;28;20048;-59
2022/03/17 11:00:24;;;;;;;41.53;30.27;;;13.80;92.00;;;;;;5044277;28;20029;-57
2022/03/17 11:02:53;;;;;;;41.60;28.17;;;14.10;90.50;;;;;;5043527;28;20029;-58
2022/03/17 11:05:19;;;;;;;39.15;29.48;;;14.30;90.30;;;;;;5044004;28;20031;-58
2022/03/17 11:07:46;;;;;;;43.85;29.77;;;14.50;90.10;;;;;;5042961;28;20021;-60
2022/03/17 11:10:15;;;;;;;47.28;30.35;;;14.60;87.90;;;;;;5043656;28;20500;-59
2022/03/17 11:12:43;;;;;;;42.63;30.55;;;15.00;87.10;;;;;;5043738;28;20033;-57
2022/03/17 11:15:09;;;;;;;47.85;27.90;;;15.10;84.40;;;;;;5043595;28;20473;-58
2022/03/17 11:17:39;;;;;;;48.33;30.02;;;15.00;83.10;;;;;;5043089;28;20079;-60
2022/03/17 11:20:12;;;;;;;43.95;29.55;;;15.40;82.50;;;;;;5043164;28;20044;-60
2022/03/17 11:22:39;;;;;;;36.75;28.42;;;15.80;80.10;;;;;;5042975;28;20040;-59
2022/03/17 11:25:23;;;;;;;38.13;27.52;;;16.10;78.50;;;;;;5043296;28;20186;-60
2022/03/17 11:27:55;;;;;;;38.63;27.92;;;16.10;78.70;;;;;;5042470;28;20044;-60
2022/03/17 11:30:21;;;;;;;38.05;26.83;;;16.50;76.40;;;;;;5043607;28;20361;-59
2022/03/17 11:32:54;;;;;;;40.58;25.95;;;16.40;73.00;;;;;;5042607;28;20033;-60
2022/03/17 11:35:21;;;;;;;40.58;29.20;;;16.00;72.10;;;;;;5043212;28;20037;-60
2022/03/17 11:37:47;;;;;;;46.58;27.48;;;15.60;73.70;;;;;;5042354;28;20377;-60
2022/03/17 11:40:19;;;;;;;34.90;26.17;;;15.90;75.00;;;;;;5041859;28;20025;-60
2022/03/17 11:42:49;;;;;;;39.22;26.23;;;16.20;72.60;;;;;;5043060;28;20033;-59
2022/03/17 11:45:15;;;;;;;45.42;29.20;;;15.80;72.40;;;;;;5043163;28;20120;-59
2022/03/17 11:47:49;;;;;;;41.80;31.50;;;15.50;73.30;;;;;;5042024;28;20214;-60
2022/03/17 11:50:27;;;;;;;48.05;29.70;;;15.20;73.70;;;;;;5043675;28;20025;-59
2022/03/17 11:52:58;;;;;;;61.38;33.33;;;14.90;73.10;;;;;;5042713;28;20083;-59
2022/03/17 11:55:42;;;;;;;41.13;28.90;;;15.10;74.70;;;;;;5042446;28;20021;-59
2022/03/17 11:58:20;;;;;;;47.10;26.70;;;15.10;74.70;;;;;;5042899;28;20031;-60
2022/03/17 12:00:46;;;;;;;35.42;27.92;;;15.20;74.50;;;;;;5042277;28;20040;-59
2022/03/17 12:03:13;;;;;;;47.33;24.23;;;15.40;73.90;;;;;;5060923;28;20359;-60
2022/03/17 12:05:40;;;;;;;36.88;24.02;;;15.10;73.40;;;;;;5062776;28;20031;-59
2022/03/17 12:08:05;;;;;;;42.15;23.27;;;15.10;72.60;;;;;;5062018;28;20027;-60
2022/03/17 12:11:05;;;;;;;148.27;99.20;;;15.00;71.80;;;;;;5062147;28;20028;-60
2022/03/17 12:13:32;;;;;;;36.08;26.25;;;15.20;71.10;;;;;;5050734;28;20059;-60
2022/03/17 12:15:58;;;;;;;36.40;25.65;;;15.20;70.70;;;;;;5042470;28;20096;-59
2022/03/17 12:18:24;;;;;;;32.30;24.02;;;15.20;71.80;;;;;;5032602;28;20064;-60
2022/03/17 12:20:52;;;;;;;34.22;24.58;;;15.10;70.70;;;;;;5041963;28;20345;-59
2022/03/17 12:23:57;;;;;;;36.78;23.25;;;14.60;68.60;;;;;;5044390;28;20021;-59
2022/03/17 12:26:22;;;;;;;40.72;25.25;;;14.30;69.40;;;;;;5049543;28;20437;-58
2022/03/17 12:28:48;;;;;;;43.45;23.92;;;14.00;71.20;;;;;;5049378;28;20054;-59
2022/03/17 12:31:14;;;;;;;418.27;259.67;;;13.90;72.90;;;;;;5050660;28;20037;-58
2022/03/17 12:33:44;;;;;;;42.13;28.27;;;13.70;74.20;;;;;;5052525;28;20029;-59
2022/03/17 12:36:11;;;;;;;32.75;23.80;;;13.70;76.60;;;;;;5052619;28;20029;-59
2022/03/17 12:38:37;;;;;;;37.60;23.63;;;13.90;76.00;;;;;;5052762;28;20108;-60
2022/03/17 12:41:10;;;;;;;37.15;23.73;;;13.90;73.90;;;;;;5052538;28;20151;-60
2022/03/17 12:43:36;;;;;;;40.97;23.02;;;14.00;73.80;;;;;;5052033;28;20024;-60
2022/03/17 12:46:02;;;;;;;33.40;21.88;;;13.70;72.90;;;;;;5051883;28;20036;-59
2022/03/17 12:48:31;;;;;;;39.97;23.13;;;13.50;72.40;;;;;;5052008;28;20049;-60
2022/03/17 12:51:07;;;;;;;44.45;24.98;;;13.50;73.50;;;;;;5051537;28;20048;-60